Time;durP1;ratioP1;P1;durP2;ratioP2;P2;SDS_P1;SDS_P2;PMS_P1;PMS_P2;Temp;Humidity;BMP_temperature;BMP_pressure;BME280_temperature;BME280_humidity;BME280_pressure;Samples;Min_cycle;Max_cycle;Signal;HPM_P1;HPM_P2
2024/03/09 00:01:50;;;;;;;68.90;36.10;;;;;;;-0.49;87.17;101026.13;105523;1262;101356;-77
2024/03/09 00:04:35;;;;;;;64.80;33.40;;;;;;;-0.49;87.32;101026.01;105268;1259;99980;-77
2024/03/09 00:07:21;;;;;;;52.40;29.70;;;;;;;-0.52;87.20;101020.77;105330;1264;99010;-76
2024/03/09 00:10:07;;;;;;;57.70;30.50;;;;;;;-0.56;87.17;101015.42;105293;1264;98053;-77
2024/03/09 00:12:53;;;;;;;68.80;36.10;;;;;;;-0.58;87.18;101012.27;105288;1261;98424;-77
2024/03/09 00:15:41;;;;;;;66.60;33.90;;;;;;;-0.60;87.28;101013.24;105359;1264;101357;-76
2024/03/09 00:18:27;;;;;;;59.10;28.90;;;;;;;-0.60;87.34;101014.33;105143;1264;99096;-77
2024/03/09 00:21:13;;;;;;;51.50;26.90;;;;;;;-0.63;87.34;101013.11;105252;1264;99458;-76
2024/03/09 00:23:59;;;;;;;42.40;24.00;;;;;;;-0.66;87.41;101015.08;105072;1263;98029;-76
2024/03/09 00:26:45;;;;;;;46.80;26.00;;;;;;;-0.68;87.65;101016.44;105171;1263;98422;-76
2024/03/09 00:29:33;;;;;;;47.10;24.80;;;;;;;-0.71;87.70;101013.68;105228;1261;102004;-77
2024/03/09 00:32:19;;;;;;;47.40;23.50;;;;;;;-0.74;87.60;101011.63;107034;1261;99245;-77
2024/03/09 00:35:07;;;;;;;46.10;24.80;;;;;;;-0.77;87.58;101012.31;105208;1263;98012;-77
2024/03/09 00:37:53;;;;;;;52.30;25.50;;;;;;;-0.79;87.64;101013.51;105290;1262;97911;-76
2024/03/09 00:40:38;;;;;;;58.20;29.40;;;;;;;-0.79;87.65;101012.80;105211;1264;98733;-76
2024/03/09 00:43:24;;;;;;;67.00;32.70;;;;;;;-0.79;87.70;101008.80;105241;1264;101347;-76
2024/03/09 00:46:11;;;;;;;69.40;34.00;;;;;;;-0.81;87.74;101009.93;105220;1260;99107;-77
2024/03/09 00:48:56;;;;;;;66.20;33.80;;;;;;;-0.82;87.63;101004.94;105417;1260;97916;-78
2024/03/09 00:51:42;;;;;;;60.30;31.80;;;;;;;-0.85;87.50;101004.27;105523;1264;99250;-77
2024/03/09 00:54:27;;;;;;;50.20;27.10;;;;;;;-0.88;87.48;101002.20;105588;1264;96304;-75
2024/03/09 00:57:13;;;;;;;51.70;27.10;;;;;;;-0.92;87.45;101004.06;105464;1265;101404;-77
2024/03/09 01:00:00;;;;;;;44.50;23.30;;;;;;;-0.95;87.58;101002.72;105263;1259;99222;-77
2024/03/09 01:02:48;;;;;;;47.60;23.60;;;;;;;-0.97;87.83;101002.29;105207;1259;97995;-77
2024/03/09 01:05:34;;;;;;;43.40;22.60;;;;;;;-0.97;88.17;101003.90;105492;1259;97878;-76
2024/03/09 01:08:20;;;;;;;46.70;23.40;;;;;;;-0.99;88.26;100999.81;105182;1259;98481;-76
2024/03/09 01:11:06;;;;;;;45.00;24.70;;;;;;;-1.01;88.22;100993.64;105226;1259;102710;-77
2024/03/09 01:13:51;;;;;;;45.90;24.40;;;;;;;-1.02;88.39;100995.48;105364;1264;100350;-79
2024/03/09 01:16:37;;;;;;;56.70;26.50;;;;;;;-1.04;88.43;100992.13;105048;1260;98757;-78
2024/03/09 01:19:24;;;;;;;59.60;27.50;;;;;;;-1.05;88.58;100991.46;105121;1259;97915;-77
2024/03/09 01:22:12;;;;;;;54.90;25.80;;;;;;;-1.05;88.73;100988.63;105233;1264;98653;-77
2024/03/09 01:24:57;;;;;;;51.10;26.20;;;;;;;-1.06;88.65;100986.79;105304;1259;101642;-78
2024/03/09 01:27:44;;;;;;;55.80;27.20;;;;;;;-1.09;88.44;100985.27;105145;1264;100496;-76
2024/03/09 01:30:29;;;;;;;60.50;27.90;;;;;;;-1.12;88.19;100981.09;105084;1265;99034;-75
2024/03/09 01:33:15;;;;;;;72.00;34.30;;;;;;;-1.13;88.26;100986.21;105240;1259;97960;-76
2024/03/09 01:36:01;;;;;;;84.10;41.60;;;;;;;-1.13;88.49;100983.42;105436;1259;98581;-76
2024/03/09 01:38:50;;;;;;;75.80;37.20;;;;;;;-1.13;88.56;100981.81;105224;1259;103123;-76
2024/03/09 01:41:36;;;;;;;68.90;32.10;;;;;;;-1.16;88.78;100980.98;105353;1265;99097;-77
2024/03/09 01:44:21;;;;;;;62.00;30.50;;;;;;;-1.19;88.54;100976.66;105246;1264;99454;-77
2024/03/09 01:47:09;;;;;;;65.10;31.00;;;;;;;-1.23;88.48;100975.32;105250;1275;97973;-78
2024/03/09 01:49:57;;;;;;;59.60;31.10;;;;;;;-1.25;88.59;100974.95;105257;1259;99572;-76
2024/03/09 01:52:48;;;;;;;67.30;31.10;;;;;;;-1.26;88.77;100972.08;105292;1262;154492;-77
2024/03/09 01:55:35;;;;;;;63.50;30.50;;;;;;;-1.30;88.64;100971.30;106409;1264;99878;-77
2024/03/09 01:58:21;;;;;;;63.60;32.00;;;;;;;-1.33;88.69;100970.95;105326;1264;99247;-77
2024/03/09 02:01:30;;;;;;;65.20;32.10;;;;;;;-1.35;88.85;100970.75;105320;1259;97897;-78
2024/03/09 02:04:15;;;;;;;65.00;31.30;;;;;;;-1.38;88.91;100967.98;105341;1259;97955;-77
2024/03/09 02:07:01;;;;;;;61.50;29.80;;;;;;;-1.44;88.87;100965.73;105246;1262;103160;-76
2024/03/09 02:09:48;;;;;;;61.50;30.80;;;;;;;-1.49;88.80;100962.23;105324;1265;99136;-75
2024/03/09 02:12:35;;;;;;;60.00;30.40;;;;;;;-1.53;88.77;100960.02;105237;1265;97954;-76
2024/03/09 02:15:27;;;;;;;56.20;30.40;;;;;;;-1.54;88.91;100958.19;105246;1260;98044;-77
2024/03/09 02:18:13;;;;;;;56.70;27.70;;;;;;;-1.55;88.79;100958.95;105274;1259;98501;-77
2024/03/09 02:21:00;;;;;;;55.30;28.00;;;;;;;-1.58;88.81;100955.80;105289;1259;101353;-76
2024/03/09 02:23:47;;;;;;;56.90;28.80;;;;;;;-1.61;88.83;100957.55;105172;1263;100559;-76
2024/03/09 02:26:37;;;;;;;60.30;29.10;;;;;;;-1.62;88.91;100959.75;105229;1259;99078;-77
2024/03/09 02:29:23;;;;;;;56.50;28.40;;;;;;;-1.63;89.02;100960.85;105177;1263;98145;-76
2024/03/09 02:32:09;;;;;;;55.20;28.20;;;;;;;-1.62;89.00;100957.11;105171;1259;98486;-76
2024/03/09 02:34:54;;;;;;;53.80;28.20;;;;;;;-1.62;88.85;100955.73;105037;1265;102277;-78
2024/03/09 02:37:40;;;;;;;58.40;29.80;;;;;;;-1.64;88.75;100955.54;105185;1259;100432;-77
2024/03/09 02:40:26;;;;;;;53.80;27.10;;;;;;;-1.67;88.63;100957.48;105192;1260;97971;-76
2024/03/09 02:43:12;;;;;;;51.10;25.60;;;;;;;-1.72;88.52;100959.35;105082;1260;97989;-76
2024/03/09 02:45:57;;;;;;;54.10;26.60;;;;;;;-1.79;88.60;100957.02;105041;1265;97890;-76
2024/03/09 02:48:44;;;;;;;49.30;25.30;;;;;;;-1.83;88.50;100958.88;105127;1265;101452;-76
2024/03/09 02:51:29;;;;;;;55.80;28.00;;;;;;;-1.87;88.44;100957.02;105218;1265;99130;-77
2024/03/09 02:54:15;;;;;;;54.10;26.30;;;;;;;-1.88;88.51;100956.73;105242;1274;99209;-77
2024/03/09 02:57:03;;;;;;;57.20;28.70;;;;;;;-1.87;88.88;100952.67;105172;1263;98077;-76
2024/03/09 02:59:49;;;;;;;53.50;26.30;;;;;;;-1.89;89.09;100951.73;105279;1259;98499;-77
2024/03/09 03:05:41;;;;;;;52.60;25.90;;;;;;;-1.91;89.20;100949.06;105436;1265;100391;-77
2024/03/09 03:08:26;;;;;;;47.10;25.90;;;;;;;-1.93;88.94;100951.83;105193;1264;98702;-76
2024/03/09 03:11:16;;;;;;;51.40;25.50;;;;;;;-1.95;88.82;100952.33;105110;1265;97936;-76
2024/03/09 03:14:01;;;;;;;48.00;24.80;;;;;;;-1.97;88.94;100950.53;105193;1259;99564;-77
2024/03/09 03:16:47;;;;;;;54.40;25.10;;;;;;;-1.98;89.06;100948.67;105146;1264;102679;-77
2024/03/09 03:19:33;;;;;;;47.20;23.30;;;;;;;-2.01;89.16;100949.01;105032;1264;99220;-77
2024/03/09 03:22:19;;;;;;;47.00;22.80;;;;;;;-2.02;89.28;100945.41;105112;1264;98375;-77
2024/03/09 03:25:09;;;;;;;50.10;24.70;;;;;;;-2.03;89.19;100947.45;105174;1263;98012;-77
2024/03/09 03:27:57;;;;;;;49.40;25.10;;;;;;;-2.06;89.04;100946.42;105290;1259;98037;-77
2024/03/09 03:30:44;;;;;;;43.20;23.00;;;;;;;-2.08;89.17;100944.80;105274;1259;102655;-76
2024/03/09 03:33:30;;;;;;;45.20;22.10;;;;;;;-2.11;89.24;100943.23;105188;1265;99144;-76
2024/03/09 03:36:18;;;;;;;45.10;22.90;;;;;;;-2.13;89.21;100943.89;105368;1264;98507;-77
2024/03/09 03:39:04;;;;;;;42.10;21.00;;;;;;;-2.16;89.28;100943.35;105203;1259;97889;-78
2024/03/09 03:41:52;;;;;;;46.80;23.00;;;;;;;-2.18;89.32;100938.93;105315;1265;99061;-76
2024/03/09 03:44:40;;;;;;;43.70;21.70;;;;;;;-2.19;89.28;100934.79;105226;1259;101398;-77
2024/03/09 03:47:26;;;;;;;45.40;21.90;;;;;;;-2.20;89.22;100937.66;105208;1273;100597;-77
2024/03/09 03:50:12;;;;;;;41.00;21.60;;;;;;;-2.20;89.27;100935.60;105171;1267;98770;-78
2024/03/09 03:52:58;;;;;;;45.00;21.10;;;;;;;-2.22;89.20;100937.28;105407;1265;97999;-76
2024/03/09 03:55:43;;;;;;;48.70;23.00;;;;;;;-2.25;89.26;100936.09;105227;1261;97865;-76
2024/03/09 03:58:29;;;;;;;46.70;25.10;;;;;;;-2.27;89.28;100931.98;105175;1265;101430;-75
2024/03/09 04:01:14;;;;;;;49.30;24.90;;;;;;;-2.28;89.24;100931.39;105432;1259;100575;-79
2024/03/09 04:04:00;;;;;;;47.00;23.60;;;;;;;-2.30;88.97;100931.14;105746;1265;98747;-78
2024/03/09 04:06:45;;;;;;;54.00;26.70;;;;;;;-2.32;88.93;100929.50;105432;1265;98067;-78
2024/03/09 04:09:31;;;;;;;53.20;26.70;;;;;;;-2.33;88.90;100928.89;105100;1265;97954;-77
2024/03/09 04:12:18;;;;;;;54.00;27.40;;;;;;;-2.33;88.99;100927.48;105174;1266;101398;-76
2024/03/09 04:15:05;;;;;;;62.70;31.00;;;;;;;-2.32;89.25;100926.39;105065;1260;100365;-76
2024/03/09 04:17:50;;;;;;;60.40;28.70;;;;;;;-2.32;89.46;100927.95;105030;1264;98982;-77
2024/03/09 04:20:37;;;;;;;64.20;31.40;;;;;;;-2.34;89.48;100926.86;104922;1265;98028;-76
2024/03/09 04:23:24;;;;;;;56.90;29.90;;;;;;;-2.36;89.57;100928.05;105041;1268;97954;-76
2024/03/09 04:26:11;;;;;;;58.30;28.20;;;;;;;-2.38;89.55;100924.27;105121;1265;101384;-76
2024/03/09 04:28:58;;;;;;;51.30;27.10;;;;;;;-2.39;89.43;100923.15;105271;1265;100182;-76
2024/03/09 04:31:44;;;;;;;56.60;26.90;;;;;;;-2.41;89.40;100917.52;105323;1265;98054;-77
2024/03/09 04:34:33;;;;;;;55.10;27.30;;;;;;;-2.43;89.64;100914.64;105209;1265;98008;-77
2024/03/09 04:37:25;;;;;;;56.00;27.90;;;;;;;-2.43;89.79;100912.92;105166;1274;98101;-77
2024/03/09 04:40:17;;;;;;;58.30;29.00;;;;;;;-2.43;89.87;100916.75;105340;1264;102717;-78
2024/03/09 04:43:03;;;;;;;62.00;30.30;;;;;;;-2.44;89.78;100916.99;105200;1263;99677;-77
2024/03/09 04:45:50;;;;;;;59.60;29.30;;;;;;;-2.45;89.69;100913.92;105262;1260;97985;-76
2024/03/09 04:48:36;;;;;;;61.50;29.70;;;;;;;-2.47;89.68;100912.30;105154;1265;97975;-77
2024/03/09 04:51:23;;;;;;;58.80;30.70;;;;;;;-2.50;89.63;100910.55;105211;1265;99250;-77
2024/03/09 04:54:10;;;;;;;56.10;28.30;;;;;;;-2.51;89.56;100911.65;105143;1265;102341;-76
2024/03/09 04:56:56;;;;;;;59.70;29.70;;;;;;;-2.51;89.50;100912.20;105044;1264;100427;-76
2024/03/09 04:59:43;;;;;;;72.00;31.70;;;;;;;-2.51;89.61;100913.05;105292;1266;99058;-78
2024/03/09 05:02:29;;;;;;;71.30;35.30;;;;;;;-2.50;89.74;100915.79;107159;1259;97891;-78
2024/03/09 05:05:17;;;;;;;63.40;30.70;;;;;;;-2.49;89.77;100914.91;107150;1265;99230;-79
2024/03/09 05:08:02;;;;;;;63.60;33.30;;;;;;;-2.51;90.11;100912.52;105639;1259;102692;-77
2024/03/09 05:10:48;;;;;;;76.90;37.90;;;;;;;-2.54;89.95;100915.70;106116;1264;100355;-78
2024/03/09 05:13:34;;;;;;;86.00;40.40;;;;;;;-2.58;89.70;100914.20;105162;1264;99087;-77
2024/03/09 05:16:20;;;;;;;79.70;38.10;;;;;;;-2.61;89.67;100915.61;105328;1265;97879;-76
2024/03/09 05:19:05;;;;;;;76.90;36.20;;;;;;;-2.63;89.79;100911.75;105269;1263;97967;-78
2024/03/09 05:21:51;;;;;;;70.90;33.20;;;;;;;-2.65;89.76;100912.77;105274;1265;101398;-76
2024/03/09 05:24:37;;;;;;;74.60;35.70;;;;;;;-2.66;89.78;100913.48;105248;1265;100412;-79
2024/03/09 05:27:22;;;;;;;67.00;34.80;;;;;;;-2.65;89.70;100914.50;105765;1260;97980;-76
2024/03/09 05:30:14;;;;;;;68.40;34.90;;;;;;;-2.64;89.71;100912.70;105372;1260;97881;-77
2024/03/09 05:33:06;;;;;;;66.00;33.80;;;;;;;-2.63;90.04;100915.74;105241;1262;98416;-76
2024/03/09 05:35:52;;;;;;;71.50;35.70;;;;;;;-2.61;90.22;100919.27;105294;1264;102770;-78
2024/03/09 05:38:38;;;;;;;58.80;29.80;;;;;;;-2.58;90.09;100921.41;105291;1266;99909;-77
2024/03/09 05:41:24;;;;;;;71.10;34.20;;;;;;;-2.57;90.23;100920.79;105836;1265;97976;-76
2024/03/09 05:44:09;;;;;;;73.40;36.90;;;;;;;-2.54;90.30;100924.09;105191;1265;97805;-76
2024/03/09 05:46:55;;;;;;;75.30;36.30;;;;;;;-2.52;90.64;100925.70;105088;1265;99667;-76
2024/03/09 05:49:40;;;;;;;64.50;33.30;;;;;;;-2.50;90.90;100926.97;105347;1264;102062;-77
2024/03/09 05:52:26;;;;;;;66.50;32.60;;;;;;;-2.49;91.09;100923.98;105319;1260;99999;-77
2024/03/09 05:55:12;;;;;;;66.40;32.50;;;;;;;-2.49;91.29;100926.23;105358;1264;107086;-77
2024/03/09 05:57:58;;;;;;;61.00;31.10;;;;;;;-2.48;91.37;100927.06;105299;1260;97905;-78
2024/03/09 06:00:44;;;;;;;65.40;31.30;;;;;;;-2.46;91.62;100926.91;105281;1265;98515;-77
2024/03/09 06:03:29;;;;;;;67.40;32.40;;;;;;;-2.43;91.72;100930.89;105238;1259;103671;-76
2024/03/09 06:06:15;;;;;;;63.90;32.90;;;;;;;-2.40;91.86;100934.01;105164;1265;100414;-77
2024/03/09 06:09:01;;;;;;;68.80;33.60;;;;;;;-2.37;91.97;100935.76;105426;1260;99023;-78
2024/03/09 06:11:48;;;;;;;60.40;33.00;;;;;;;-2.35;91.98;100933.89;105260;1265;97963;-76
2024/03/09 06:14:33;;;;;;;63.70;33.60;;;;;;;-2.31;92.10;100934.00;105906;1262;98436;-77
2024/03/09 06:17:19;;;;;;;80.60;39.30;;;;;;;-2.25;92.46;100933.95;105372;1266;101426;-77
2024/03/09 06:20:05;;;;;;;77.60;38.60;;;;;;;-2.19;92.71;100934.98;105190;1265;100825;-76
2024/03/09 06:22:53;;;;;;;83.40;42.40;;;;;;;-2.13;93.06;100934.58;105390;1266;98005;-76
2024/03/09 06:25:40;;;;;;;84.30;42.00;;;;;;;-2.08;93.85;100931.44;105210;1273;97961;-76
2024/03/09 06:28:26;;;;;;;81.10;39.60;;;;;;;-2.03;94.16;100932.17;105178;1264;97942;-76
2024/03/09 06:31:13;;;;;;;76.70;37.60;;;;;;;-1.98;94.81;100929.59;105490;1265;102606;-77
2024/03/09 06:33:59;;;;;;;80.30;39.30;;;;;;;-1.94;95.44;100930.05;105293;1260;99137;-76
2024/03/09 06:36:46;;;;;;;75.80;39.30;;;;;;;-1.91;95.86;100925.48;105165;1269;98340;-76
2024/03/09 06:39:32;;;;;;;80.80;41.20;;;;;;;-1.87;96.29;100927.66;105079;1265;98559;-76
2024/03/09 06:42:21;;;;;;;81.50;40.00;;;;;;;-1.80;96.83;100928.08;105066;1265;98490;-77
2024/03/09 06:45:08;;;;;;;81.60;42.00;;;;;;;-1.73;97.44;100929.48;105150;1265;109476;-76
2024/03/09 06:47:54;;;;;;;88.70;42.50;;;;;;;-1.67;97.91;100931.17;105099;1273;100361;-77
2024/03/09 06:50:45;;;;;;;90.00;45.90;;;;;;;-1.58;98.18;100929.73;106670;1264;98989;-78
2024/03/09 06:53:31;;;;;;;86.10;44.60;;;;;;;-1.50;98.61;100931.11;105197;1265;98076;-77
2024/03/09 06:56:17;;;;;;;86.20;42.90;;;;;;;-1.41;99.36;100928.61;105223;1266;98523;-77
2024/03/09 06:59:03;;;;;;;90.90;42.90;;;;;;;-1.33;99.78;100925.23;105266;1265;102632;-76
2024/03/09 07:01:53;;;;;;;95.40;47.70;;;;;;;-1.22;99.98;100927.50;105098;1266;100627;-77
2024/03/09 07:04:38;;;;;;;95.10;48.60;;;;;;;-1.12;100.00;100930.62;105119;1260;98013;-77
2024/03/09 07:07:23;;;;;;;103.50;50.30;;;;;;;-1.01;100.00;100928.46;105106;1264;97965;-77
2024/03/09 07:10:09;;;;;;;100.80;52.40;;;;;;;-0.89;100.00;100927.25;105082;1265;98511;-76
2024/03/09 07:12:56;;;;;;;102.60;49.20;;;;;;;-0.77;100.00;100926.98;105156;1273;102609;-77
2024/03/09 07:15:43;;;;;;;99.70;51.20;;;;;;;-0.65;100.00;100926.28;105257;1265;100470;-77
2024/03/09 07:18:33;;;;;;;108.80;52.60;;;;;;;-0.52;100.00;100922.89;105141;1273;97951;-77
2024/03/09 07:21:20;;;;;;;96.80;49.70;;;;;;;-0.39;100.00;100918.08;105252;1265;97990;-76
2024/03/09 07:24:07;;;;;;;91.90;47.80;;;;;;;-0.26;100.00;100915.71;105170;1265;99140;-79
2024/03/09 07:26:52;;;;;;;98.30;49.00;;;;;;;-0.11;100.00;100916.89;105210;1266;101368;-76
2024/03/09 07:29:38;;;;;;;96.30;48.30;;;;;;;0.04;100.00;100916.02;105221;1260;99254;-77
2024/03/09 07:32:24;;;;;;;119.00;56.60;;;;;;;0.17;100.00;100920.10;105231;1265;97885;-76
2024/03/09 07:35:15;;;;;;;100.60;51.90;;;;;;;0.30;100.00;100922.50;106068;1261;97884;-85
2024/03/09 07:38:01;;;;;;;104.80;49.60;;;;;;;0.44;100.00;100923.90;106371;1260;99620;-81
2024/03/09 07:40:47;;;;;;;88.10;46.50;;;;;;;0.57;100.00;100925.20;105977;1265;102717;-83
2024/03/09 07:43:33;;;;;;;99.30;46.90;;;;;;;0.71;100.00;100922.88;105971;1266;99079;-82
2024/03/09 07:46:20;;;;;;;95.80;49.40;;;;;;;0.85;100.00;100919.36;106018;1266;98034;-84
2024/03/09 07:49:07;;;;;;;104.50;52.70;;;;;;;0.98;100.00;100918.49;105886;1264;98583;-85
2024/03/09 07:51:52;;;;;;;93.70;49.30;;;;;;;1.11;100.00;100912.90;105813;1266;98713;-77
2024/03/09 07:54:39;;;;;;;107.40;50.40;;;;;;;1.24;100.00;100914.52;105220;1264;102620;-78
2024/03/09 07:57:24;;;;;;;95.50;52.50;;;;;;;1.37;100.00;100913.70;105260;1266;99686;-77
2024/03/09 08:00:17;;;;;;;96.40;50.30;;;;;;;1.49;100.00;100915.47;105197;1264;99505;-77
2024/03/09 08:03:02;;;;;;;93.90;49.90;;;;;;;1.64;100.00;100911.88;106542;1263;98060;-83
2024/03/09 08:05:49;;;;;;;93.90;49.10;;;;;;;1.75;100.00;100908.48;105741;1266;98485;-83
2024/03/09 08:08:35;;;;;;;92.00;46.90;;;;;;;1.87;100.00;100908.88;105969;1269;101405;-80
2024/03/09 08:11:24;;;;;;;87.90;46.00;;;;;;;1.98;100.00;100901.45;105498;1265;100510;-82
2024/03/09 08:14:11;;;;;;;92.90;48.60;;;;;;;2.11;100.00;100904.61;105767;1261;98378;-83
2024/03/09 08:16:58;;;;;;;88.70;46.10;;;;;;;2.23;100.00;100904.48;105760;1260;98040;-84
2024/03/09 08:19:44;;;;;;;94.00;47.00;;;;;;;2.35;100.00;100902.28;105877;1266;98428;-82
2024/03/09 08:22:29;;;;;;;84.80;46.30;;;;;;;2.46;99.96;100902.65;105974;1264;102777;-87
2024/03/09 08:25:17;;;;;;;88.70;43.30;;;;;;;2.58;99.78;100902.34;106174;1265;101426;-77
2024/03/09 08:28:06;;;;;;;81.30;43.00;;;;;;;2.68;99.44;100901.05;105406;1267;99102;-78
2024/03/09 08:30:52;;;;;;;81.90;42.20;;;;;;;2.79;98.87;100899.61;105342;1261;97871;-84
2024/03/09 08:33:39;;;;;;;73.20;38.60;;;;;;;2.89;98.31;100897.13;105877;1264;98403;-76
2024/03/09 08:36:26;;;;;;;77.30;38.60;;;;;;;3.01;97.79;100899.42;105764;1264;101465;-75
2024/03/09 08:39:12;;;;;;;76.30;41.20;;;;;;;3.14;97.20;100896.04;105101;1273;100323;-75
2024/03/09 08:41:59;;;;;;;67.20;37.20;;;;;;;3.25;97.17;100890.34;105189;1264;97986;-76
2024/03/09 08:44:45;;;;;;;73.20;39.10;;;;;;;3.37;97.75;100888.55;105133;1265;98031;-75
2024/03/09 08:47:30;;;;;;;61.00;34.00;;;;;;;3.49;97.81;100891.05;105147;1264;98521;-75
2024/03/09 08:50:17;;;;;;;62.90;36.40;;;;;;;3.60;97.30;100888.40;105073;1264;101338;-77
2024/03/09 08:53:03;;;;;;;64.20;33.90;;;;;;;3.69;96.17;100886.20;106057;1260;99595;-80
2024/03/09 08:55:49;;;;;;;66.10;35.80;;;;;;;3.78;95.82;100882.06;105942;1264;97996;-77
2024/03/09 08:58:35;;;;;;;59.90;33.10;;;;;;;3.87;95.20;100880.52;105638;1264;97966;-79
2024/03/09 09:01:20;;;;;;;55.10;31.50;;;;;;;3.97;94.98;100875.63;105556;1266;99637;-80
2024/03/09 09:04:06;;;;;;;57.60;31.00;;;;;;;4.06;94.57;100872.62;106031;1264;102063;-80
2024/03/09 09:06:52;;;;;;;57.60;30.90;;;;;;;4.15;94.18;100872.48;106513;1261;99170;-79
2024/03/09 09:09:38;;;;;;;58.60;29.60;;;;;;;4.27;94.43;100870.00;106104;1264;98263;-79
2024/03/09 09:12:24;;;;;;;55.70;30.30;;;;;;;4.41;93.80;100868.71;105837;1264;99211;-80
2024/03/09 09:15:16;;;;;;;82.60;42.90;;;;;;;4.50;92.59;100864.15;105763;1264;97896;-79
2024/03/09 09:18:02;;;;;;;70.30;35.50;;;;;;;4.57;92.28;100862.05;106061;1264;101404;-79
2024/03/09 09:20:48;;;;;;;52.50;29.10;;;;;;;4.67;92.22;100867.61;105581;1260;99229;-80
2024/03/09 09:23:33;;;;;;;49.60;28.80;;;;;;;4.77;91.25;100868.52;105517;1264;97982;-78
2024/03/09 09:26:19;;;;;;;77.30;46.20;;;;;;;4.86;90.97;100868.38;105604;1261;98857;-78
2024/03/09 09:29:05;;;;;;;51.10;29.20;;;;;;;4.98;91.99;100864.23;105636;1261;99829;-78
2024/03/09 09:31:50;;;;;;;43.90;24.50;;;;;;;5.17;93.12;100862.23;106233;1263;101866;-80
2024/03/09 09:34:36;;;;;;;39.70;23.00;;;;;;;5.39;92.88;100858.66;106765;1259;99278;-80
2024/03/09 09:37:21;;;;;;;39.70;22.80;;;;;;;5.58;91.01;100856.05;106778;1261;97789;-80
2024/03/09 09:40:07;;;;;;;36.70;21.50;;;;;;;5.77;90.89;100852.91;106813;1264;98007;-80
2024/03/09 09:42:53;;;;;;;35.10;20.30;;;;;;;5.95;90.83;100852.02;106498;1261;97753;-79
2024/03/09 09:45:44;;;;;;;37.60;22.00;;;;;;;6.13;90.16;100850.62;106685;1260;103061;-79
2024/03/09 09:48:37;;;;;;;34.20;20.50;;;;;;;6.26;88.35;100848.33;106712;1264;99073;-79
2024/03/09 09:51:28;;;;;;;36.90;21.30;;;;;;;6.37;88.00;100841.44;106582;1260;97961;-80
2024/03/09 09:54:14;;;;;;;38.60;23.10;;;;;;;6.49;86.44;100844.69;106185;1261;97919;-80
2024/03/09 09:57:00;;;;;;;34.50;20.60;;;;;;;6.57;86.19;100843.64;106609;1261;98515;-80
2024/03/09 09:59:46;;;;;;;42.30;25.30;;;;;;;6.67;85.31;100837.64;106571;1260;102805;-80
2024/03/09 10:02:32;;;;;;;43.50;23.60;;;;;;;6.73;83.82;100834.98;106509;1260;100919;-80
2024/03/09 10:05:18;;;;;;;36.50;20.30;;;;;;;6.73;82.87;100830.14;106575;1260;99034;-80
2024/03/09 10:08:08;;;;;;;33.70;19.80;;;;;;;6.73;82.06;100827.61;106585;1264;96215;-80
2024/03/09 10:10:53;;;;;;;34.50;18.60;;;;;;;6.75;81.86;100827.29;106603;1260;98416;-80
2024/03/09 10:13:39;;;;;;;31.80;17.20;;;;;;;6.78;80.68;100827.55;106599;1264;102616;-80
2024/03/09 10:16:30;;;;;;;31.10;19.80;;;;;;;6.82;80.57;100824.77;105853;1260;99206;-81
2024/03/09 10:19:17;;;;;;;35.20;19.00;;;;;;;6.87;78.93;100822.97;105860;1260;99087;-83
2024/03/09 10:22:03;;;;;;;31.40;18.80;;;;;;;6.91;78.09;100820.05;105835;1260;97860;-83
2024/03/09 10:24:54;;;;;;;38.10;20.20;;;;;;;6.96;77.99;100816.67;105848;1260;97895;-85
2024/03/09 10:27:40;;;;;;;37.60;18.00;;;;;;;7.00;77.58;100818.98;105613;1264;101427;-84
2024/03/09 10:30:27;;;;;;;32.20;17.10;;;;;;;7.02;77.28;100810.27;105878;1264;99139;-84
2024/03/09 10:33:16;;;;;;;31.00;17.80;;;;;;;7.03;77.19;100806.81;105814;1264;98573;-84
2024/03/09 10:36:03;;;;;;;33.40;18.70;;;;;;;7.07;76.85;100802.14;106182;1260;97901;-78
2024/03/09 10:38:51;;;;;;;36.50;20.50;;;;;;;7.11;76.66;100800.87;105702;1261;98396;-77
2024/03/09 10:41:37;;;;;;;31.30;18.30;;;;;;;7.16;76.80;100796.75;105153;1259;102679;-77
2024/03/09 10:44:24;;;;;;;32.30;17.80;;;;;;;7.21;76.71;100797.11;105247;1264;101367;-82
2024/03/09 10:47:12;;;;;;;33.30;18.80;;;;;;;7.28;76.43;100796.21;105788;1260;97972;-82
2024/03/09 10:50:03;;;;;;;29.70;17.00;;;;;;;7.35;75.92;100788.27;105317;1264;97971;-80
2024/03/09 10:53:01;;;;;;;32.10;18.30;;;;;;;7.42;75.40;100788.77;106143;1260;98061;-79
2024/03/09 10:56:06;;;;;;;32.50;17.90;;;;;;;7.49;74.92;100789.29;106259;1261;101404;-81
2024/03/09 10:58:53;;;;;;;29.40;16.40;;;;;;;7.55;73.82;100783.64;106288;1260;100031;-82
2024/03/09 11:01:39;;;;;;;28.50;16.30;;;;;;;7.60;73.48;100778.85;106213;1260;98726;-81
2024/03/09 11:04:25;;;;;;;27.80;16.60;;;;;;;7.65;73.51;100774.55;105873;1263;99276;-81
2024/03/09 11:07:13;;;;;;;24.30;15.20;;;;;;;7.70;72.87;100772.01;106084;1260;97850;-80
2024/03/09 11:09:59;;;;;;;25.90;14.20;;;;;;;7.76;72.35;100771.42;106263;1260;101334;-83
2024/03/09 11:12:46;;;;;;;26.80;15.00;;;;;;;7.81;71.30;100767.52;106119;1263;99088;-81
2024/03/09 11:15:36;;;;;;;28.40;14.50;;;;;;;7.87;70.96;100761.02;105989;1261;99162;-77
2024/03/09 11:18:22;;;;;;;32.70;18.20;;;;;;;7.93;71.55;100759.60;105884;1264;97957;-85
2024/03/09 11:21:11;;;;;;;32.60;17.60;;;;;;;7.98;71.63;100752.30;106074;1260;97983;-86
2024/03/09 11:24:00;;;;;;;33.40;16.80;;;;;;;8.03;71.76;100750.04;105887;1261;101458;-82
2024/03/09 11:26:52;;;;;;;33.30;18.40;;;;;;;8.08;71.11;100748.53;106228;1259;100465;-84
2024/03/09 11:29:40;;;;;;;25.80;14.20;;;;;;;8.14;70.34;100739.56;105848;1260;98019;-84
2024/03/09 11:32:28;;;;;;;28.60;14.90;;;;;;;8.19;69.87;100736.05;106075;1264;97975;-81
2024/03/09 11:35:35;;;;;;;26.30;14.80;;;;;;;8.25;69.85;100727.50;106188;1261;97798;-86
2024/03/09 11:38:21;;;;;;;25.70;14.90;;;;;;;8.30;70.05;100723.84;105898;1260;101299;-85
2024/03/09 11:41:07;;;;;;;24.60;13.40;;;;;;;8.37;68.82;100717.19;106020;1261;99140;-84
2024/03/09 11:43:57;;;;;;;27.50;14.80;;;;;;;8.43;68.39;100713.38;105858;1261;99165;-87
2024/03/09 11:46:43;;;;;;;22.60;14.50;;;;;;;8.48;68.74;100711.48;106178;1260;97976;-82
2024/03/09 11:49:29;;;;;;;29.30;15.90;;;;;;;8.54;68.62;100711.25;106028;1261;99340;-82
2024/03/09 11:52:15;;;;;;;28.80;16.00;;;;;;;8.60;68.38;100710.96;105687;1261;101385;-79
2024/03/09 11:55:03;;;;;;;26.40;16.00;;;;;;;8.66;68.60;100711.48;105709;1261;99139;-79
2024/03/09 11:57:52;;;;;;;25.70;14.60;;;;;;;8.73;68.09;100712.85;106124;1260;98035;-81
2024/03/09 12:00:37;;;;;;;24.50;14.50;;;;;;;8.77;67.81;100708.02;106231;1260;97951;-85
2024/03/09 12:03:23;;;;;;;25.80;14.80;;;;;;;8.83;67.48;100701.45;106433;1263;97870;-82
2024/03/09 12:06:09;;;;;;;22.50;12.90;;;;;;;8.90;67.55;100692.29;105947;1264;102760;-85
2024/03/09 12:08:57;;;;;;;25.00;14.90;;;;;;;8.97;66.97;100686.18;105892;1265;101336;-84
2024/03/09 12:11:46;;;;;;;24.40;13.70;;;;;;;9.02;66.76;100683.42;106327;1264;97921;-87
2024/03/09 12:14:32;;;;;;;24.80;13.60;;;;;;;9.07;66.59;100686.93;105938;1260;97919;-86
2024/03/09 12:17:20;;;;;;;22.90;14.80;;;;;;;9.13;65.90;100683.73;106074;1261;97980;-91
2024/03/09 12:20:08;;;;;;;24.40;13.00;;;;;;;9.19;65.13;100679.15;106298;1260;111459;-84
2024/03/09 12:22:54;;;;;;;23.10;14.20;;;;;;;9.25;64.34;100672.77;106096;1260;100020;-82
2024/03/09 12:25:42;;;;;;;23.00;13.60;;;;;;;9.30;64.01;100670.94;105802;1259;98074;-84
2024/03/09 12:28:28;;;;;;;20.00;12.20;;;;;;;9.36;63.46;100664.92;105885;1264;97868;-89
2024/03/09 12:31:15;;;;;;;20.60;12.00;;;;;;;9.44;63.17;100662.05;105867;1259;97964;-85
2024/03/09 12:34:08;;;;;;;20.10;11.10;;;;;;;9.51;62.38;100662.77;106658;1264;101416;-89